createdAt,value
2017-07-05T00:02:13.499Z,14.40
2017-07-05T00:04:41.787Z,14.40
2017-07-05T00:07:10.067Z,14.40
2017-07-05T00:09:39.202Z,14.50
2017-07-05T00:12:07.484Z,14.50
2017-07-05T00:14:35.775Z,14.50
2017-07-05T00:17:04.092Z,14.40
2017-07-05T00:19:32.368Z,14.60
2017-07-05T00:22:00.701Z,14.50
2017-07-05T00:24:29.075Z,14.60
2017-07-05T00:26:57.355Z,14.60
2017-07-05T00:29:25.764Z,14.60
2017-07-05T00:31:54.047Z,14.60
2017-07-05T00:34:22.327Z,14.60
2017-07-05T00:36:50.646Z,14.60
2017-07-05T00:39:19.737Z,14.50
2017-07-05T00:41:48.019Z,14.50
2017-07-05T00:44:16.351Z,14.60
2017-07-05T00:46:44.713Z,14.60
2017-07-05T00:49:13.766Z,14.70
2017-07-05T00:51:42.097Z,14.70
2017-07-05T00:54:10.793Z,14.70
2017-07-05T00:56:39.101Z,14.60
2017-07-05T00:59:07.379Z,14.70
2017-07-05T01:01:35.698Z,14.70
2017-07-05T01:04:04.779Z,14.60
2017-07-05T01:06:33.063Z,14.60
2017-07-05T01:09:01.383Z,14.60
2017-07-05T01:11:30.427Z,14.70
2017-07-05T01:13:58.748Z,14.70
2017-07-05T01:16:27.024Z,14.70
2017-07-05T01:18:55.365Z,14.60
2017-07-05T01:21:24.412Z,14.70
2017-07-05T01:23:52.719Z,14.60
2017-07-05T01:26:21.051Z,14.70
2017-07-05T01:28:49.337Z,14.60
2017-07-05T01:31:18.401Z,14.60
2017-07-05T01:33:46.717Z,14.60
2017-07-05T01:36:15.032Z,14.60
2017-07-05T01:38:43.374Z,14.50
2017-07-05T01:41:11.687Z,14.50
2017-07-05T01:43:40.880Z,14.60
2017-07-05T01:46:09.179Z,14.60
2017-07-05T01:48:37.455Z,14.60
2017-07-05T01:51:05.857Z,14.60
2017-07-05T01:53:34.175Z,14.60
2017-07-05T01:56:03.338Z,14.50
2017-07-05T01:58:31.623Z,14.50
2017-07-05T02:00:59.961Z,14.50
2017-07-05T02:03:29.136Z,14.40
2017-07-05T02:05:57.527Z,14.40
2017-07-05T02:08:25.926Z,14.40
2017-07-05T02:10:54.194Z,14.40
2017-07-05T02:13:22.532Z,14.40
2017-07-05T02:15:51.613Z,14.30
2017-07-05T02:18:20.001Z,14.30
2017-07-05T02:20:48.315Z,14.30
2017-07-05T02:23:17.504Z,14.30
2017-07-05T02:25:45.783Z,14.30
2017-07-05T02:28:14.103Z,14.40
2017-07-05T02:30:43.188Z,14.50
2017-07-05T02:33:11.462Z,14.40
2017-07-05T02:35:39.855Z,14.40
2017-07-05T02:38:08.144Z,14.40
2017-07-05T02:40:36.424Z,14.40
2017-07-05T02:43:04.743Z,14.40
2017-07-05T02:45:33.128Z,14.40
2017-07-05T02:48:01.523Z,14.30
2017-07-05T02:50:29.809Z,14.30
2017-07-05T02:52:58.200Z,14.30
2017-07-05T02:55:26.520Z,14.30
2017-07-05T02:57:54.805Z,14.30
2017-07-05T03:03:00.707Z,14.30
2017-07-05T03:05:29.050Z,14.20
2017-07-05T03:07:57.340Z,14.30
2017-07-05T03:10:25.740Z,14.20
2017-07-05T03:12:54.123Z,14.20
2017-07-05T03:15:22.456Z,14.20
2017-07-05T03:17:50.749Z,14.10
2017-07-05T03:20:19.090Z,14.20
2017-07-05T03:22:47.492Z,14.10
2017-07-05T03:25:15.828Z,14.10
2017-07-05T03:27:44.171Z,14.20
2017-07-05T03:30:12.455Z,14.20
2017-07-05T03:32:41.150Z,14.30
2017-07-05T03:35:09.656Z,14.40
2017-07-05T03:37:37.944Z,14.40
2017-07-05T03:40:06.259Z,14.40
2017-07-05T03:42:35.441Z,14.40
2017-07-05T03:45:03.714Z,14.40
2017-07-05T03:47:32.026Z,14.30
2017-07-05T03:50:00.353Z,14.30
2017-07-05T03:52:28.638Z,14.40
2017-07-05T03:54:56.967Z,14.50
2017-07-05T03:57:25.310Z,14.60
2017-07-05T03:59:54.351Z,14.50
2017-07-05T04:02:22.640Z,14.40
2017-07-05T04:04:50.964Z,14.50
2017-07-05T04:07:19.283Z,14.60
2017-07-05T04:09:48.375Z,14.70
2017-07-05T04:12:17.458Z,14.60
2017-07-05T04:14:45.766Z,14.60
2017-07-05T04:17:14.138Z,14.80
2017-07-05T04:19:42.424Z,14.80
2017-07-05T04:22:10.750Z,14.80
2017-07-05T04:24:39.834Z,14.90
2017-07-05T04:27:08.110Z,14.90
2017-07-05T04:29:36.449Z,14.90
2017-07-05T04:32:04.804Z,15.00
2017-07-05T04:34:33.081Z,15.10
2017-07-05T04:37:01.475Z,15.00
2017-07-05T04:39:29.764Z,15.00
2017-07-05T04:41:58.165Z,15.10
2017-07-05T04:44:26.457Z,15.00
2017-07-05T04:46:54.790Z,15.10
2017-07-05T04:49:23.085Z,15.20
2017-07-05T04:51:51.419Z,15.20
2017-07-05T04:54:19.808Z,15.10
2017-07-05T04:56:48.094Z,15.20
2017-07-05T04:59:16.387Z,15.20
2017-07-05T05:01:44.716Z,15.30
2017-07-05T05:04:13.756Z,15.40
2017-07-05T05:06:42.060Z,15.30
2017-07-05T05:09:10.380Z,15.40
2017-07-05T05:11:39.462Z,15.40
2017-07-05T05:14:07.750Z,15.40
2017-07-05T05:16:36.075Z,15.40
2017-07-05T05:19:05.493Z,15.40
2017-07-05T05:21:34.539Z,15.10
2017-07-05T05:24:02.865Z,15.10
2017-07-05T05:26:31.209Z,15.10
2017-07-05T05:29:00.762Z,15.10
2017-07-05T05:31:29.049Z,15.20
2017-07-05T05:33:57.384Z,15.20
2017-07-05T05:36:26.437Z,15.10
2017-07-05T05:38:54.710Z,15.10
2017-07-05T05:41:24.011Z,15.10
2017-07-05T05:43:52.443Z,15.10
2017-07-05T05:46:20.758Z,14.90
2017-07-05T05:48:50.165Z,14.90
2017-07-05T05:51:19.366Z,14.80
2017-07-05T05:53:47.705Z,14.80
2017-07-05T05:56:15.979Z,14.70
2017-07-05T05:58:44.273Z,14.80
2017-07-05T06:01:12.619Z,14.70
2017-07-05T06:03:41.025Z,14.60
2017-07-05T06:06:09.299Z,14.70
2017-07-05T06:08:37.686Z,14.60
2017-07-05T06:11:06.175Z,14.60
2017-07-05T06:13:34.489Z,14.70
2017-07-05T06:16:02.858Z,14.70
2017-07-05T06:18:31.165Z,14.70
2017-07-05T06:20:59.482Z,14.70
2017-07-05T06:23:27.835Z,14.70
2017-07-05T06:25:56.218Z,14.80
2017-07-05T06:28:24.535Z,14.80
2017-07-05T06:30:53.720Z,14.80
2017-07-05T06:33:22.040Z,14.80
2017-07-05T06:35:50.315Z,14.80
2017-07-05T06:38:18.639Z,14.70
2017-07-05T06:40:46.959Z,14.60
2017-07-05T06:43:15.471Z,14.70
2017-07-05T06:45:43.768Z,14.60
2017-07-05T06:48:12.098Z,14.60
2017-07-05T06:50:40.388Z,14.60
2017-07-05T06:53:08.740Z,14.40
2017-07-05T06:55:37.127Z,14.40
2017-07-05T06:58:05.421Z,14.30
2017-07-05T07:00:33.763Z,14.40
2017-07-05T07:03:02.038Z,14.30
2017-07-05T07:05:30.328Z,14.20
2017-07-05T07:07:58.652Z,14.30
2017-07-05T07:10:26.987Z,14.30
2017-07-05T07:12:56.082Z,14.50
2017-07-05T07:15:24.451Z,14.50
2017-07-05T07:17:52.773Z,14.50
2017-07-05T07:20:21.830Z,14.60
2017-07-05T07:22:50.259Z,14.60
2017-07-05T07:25:18.590Z,14.70
2017-07-05T07:27:46.927Z,14.70
2017-07-05T07:30:15.217Z,14.90
2017-07-05T07:32:43.606Z,14.90
2017-07-05T07:35:11.883Z,14.80
2017-07-05T07:37:40.287Z,14.80
2017-07-05T07:40:08.602Z,14.80
2017-07-05T07:42:37.692Z,14.60
2017-07-05T07:45:06.037Z,14.60
2017-07-05T07:47:34.377Z,14.70
2017-07-05T07:50:02.712Z,14.80
2017-07-05T07:52:30.997Z,15.00
2017-07-05T07:54:59.323Z,14.90
2017-07-05T07:57:27.719Z,14.80
2017-07-05T07:59:55.998Z,14.90
2017-07-05T08:02:24.300Z,15.00
2017-07-05T08:04:52.626Z,15.00
2017-07-05T08:07:21.676Z,15.00
2017-07-05T08:09:49.949Z,15.00
2017-07-05T08:12:18.328Z,14.90
2017-07-05T08:14:46.667Z,15.00
2017-07-05T08:17:14.963Z,15.10
2017-07-05T08:19:43.292Z,15.00
2017-07-05T08:22:11.565Z,15.00
2017-07-05T08:24:40.671Z,15.20
2017-07-05T08:27:09.718Z,15.20
2017-07-05T08:29:38.004Z,15.20
2017-07-05T08:32:06.327Z,15.40
2017-07-05T08:34:34.651Z,15.40
2017-07-05T08:37:03.746Z,15.40
2017-07-05T08:39:32.124Z,15.40
2017-07-05T08:42:00.527Z,15.70
2017-07-05T08:44:28.857Z,15.90
2017-07-05T08:46:57.189Z,15.80
2017-07-05T08:49:25.469Z,16.00
2017-07-05T08:51:53.739Z,15.80
2017-07-05T08:54:22.081Z,15.90
2017-07-05T08:56:51.172Z,16.00
2017-07-05T08:59:19.548Z,16.00
2017-07-05T09:01:47.823Z,16.20
2017-07-05T09:04:16.099Z,16.40
2017-07-05T09:06:44.441Z,16.50
2017-07-05T09:09:12.729Z,16.70
2017-07-05T09:11:41.003Z,16.70
2017-07-05T09:14:09.362Z,16.80
2017-07-05T09:16:37.652Z,16.70
2017-07-05T09:19:05.977Z,16.90
2017-07-05T09:21:34.372Z,17.30
2017-07-05T09:24:02.756Z,17.70
2017-07-05T09:26:31.053Z,18.10
2017-07-05T09:29:00.446Z,18.00
2017-07-05T09:31:28.852Z,17.50
2017-07-05T09:33:57.127Z,17.40
2017-07-05T09:36:25.431Z,17.90
2017-07-05T09:38:53.743Z,18.30
2017-07-05T09:41:22.797Z,19.00
2017-07-05T09:43:51.210Z,19.00
2017-07-05T09:46:19.490Z,18.70
2017-07-05T09:48:47.781Z,18.60
2017-07-05T09:51:16.132Z,18.70
2017-07-05T09:53:44.476Z,18.80
2017-07-05T09:56:12.751Z,18.80
2017-07-05T09:58:41.155Z,18.20
2017-07-05T10:01:09.440Z,17.60
2017-07-05T10:03:37.756Z,17.40
2017-07-05T10:06:06.836Z,17.40
2017-07-05T10:08:35.130Z,17.40
2017-07-05T10:11:03.510Z,17.50
2017-07-05T10:13:31.795Z,17.70
2017-07-05T10:16:00.135Z,17.80
2017-07-05T10:18:28.414Z,17.90
2017-07-05T10:20:57.481Z,18.00
2017-07-05T10:23:25.811Z,18.00
2017-07-05T10:25:54.850Z,18.30
2017-07-05T10:28:23.136Z,18.30
2017-07-05T10:30:51.450Z,18.60
2017-07-05T10:33:19.871Z,18.80
2017-07-05T10:35:48.151Z,18.80
2017-07-05T10:38:16.480Z,19.00
2017-07-05T10:40:44.822Z,19.20
2017-07-05T10:43:13.128Z,19.20
2017-07-05T10:45:41.520Z,19.10
2017-07-05T10:48:09.840Z,18.90
2017-07-05T10:50:38.302Z,19.00
2017-07-05T10:53:06.690Z,18.70
2017-07-05T10:55:35.076Z,18.30
2017-07-05T10:58:03.405Z,18.50
2017-07-05T11:00:31.746Z,18.80
2017-07-05T11:03:00.148Z,18.90
2017-07-05T11:05:28.540Z,19.30
2017-07-05T11:07:56.944Z,19.40
2017-07-05T11:10:25.260Z,19.80
2017-07-05T11:12:53.592Z,20.30
2017-07-05T11:15:21.887Z,20.40
2017-07-05T11:17:50.167Z,20.60
2017-07-05T11:20:18.572Z,20.40
2017-07-05T11:22:46.893Z,20.30
2017-07-05T11:25:15.984Z,20.10
2017-07-05T11:27:44.363Z,20.00
2017-07-05T11:30:12.746Z,20.00
2017-07-05T11:32:41.023Z,20.00
2017-07-05T11:35:09.295Z,20.10
2017-07-05T11:37:37.740Z,20.30
2017-07-05T11:40:06.030Z,20.30
2017-07-05T11:42:34.399Z,20.30
2017-07-05T11:45:02.674Z,20.50
2017-07-05T11:47:31.013Z,20.80
2017-07-05T11:50:00.088Z,21.20
2017-07-05T11:52:28.368Z,21.20
2017-07-05T11:54:56.674Z,21.10
2017-07-05T11:57:24.960Z,20.90
2017-07-05T11:59:53.279Z,20.80
2017-07-05T12:02:22.379Z,20.10
2017-07-05T12:04:51.463Z,19.80
2017-07-05T12:07:19.782Z,19.80
2017-07-05T12:09:48.912Z,19.90
2017-07-05T12:12:17.195Z,19.90
2017-07-05T12:14:45.538Z,20.20
2017-07-05T12:17:13.879Z,20.20
2017-07-05T12:19:42.228Z,20.20
2017-07-05T12:22:10.607Z,20.20
2017-07-05T12:24:38.936Z,20.20
2017-07-05T12:27:08.026Z,20.60
2017-07-05T12:29:36.335Z,20.60
2017-07-05T12:32:04.683Z,20.70
2017-07-05T12:34:33.018Z,20.40
2017-07-05T12:37:01.383Z,20.30
2017-07-05T12:39:29.666Z,20.50
2017-07-05T12:41:58.053Z,20.80
2017-07-05T12:44:26.337Z,21.10
2017-07-05T12:46:54.672Z,21.10
2017-07-05T12:49:22.947Z,20.90
2017-07-05T12:51:52.021Z,20.60
2017-07-05T12:54:20.419Z,20.60
2017-07-05T12:56:48.797Z,20.40
2017-07-05T12:59:17.090Z,20.10
2017-07-05T13:01:45.376Z,20.30
2017-07-05T13:04:14.078Z,20.80
2017-07-05T13:06:42.365Z,20.80
2017-07-05T13:09:10.688Z,20.90
2017-07-05T13:11:39.791Z,20.80
2017-07-05T13:14:09.009Z,20.80
2017-07-05T13:16:38.092Z,21.00
2017-07-05T13:19:07.310Z,21.40
2017-07-05T13:21:35.649Z,21.30
2017-07-05T13:24:03.980Z,21.60
2017-07-05T13:26:32.265Z,21.50
2017-07-05T13:29:00.599Z,21.20
2017-07-05T13:31:28.887Z,21.30
2017-07-05T13:33:57.176Z,21.00
2017-07-05T13:36:25.508Z,20.40
2017-07-05T13:38:53.787Z,20.30
2017-07-05T13:41:22.107Z,20.00
2017-07-05T13:43:50.434Z,19.90
2017-07-05T13:46:18.721Z,19.80
2017-07-05T13:48:47.787Z,19.80
2017-07-05T13:51:16.105Z,19.80
2017-07-05T13:53:45.297Z,20.50
2017-07-05T13:56:13.575Z,20.40
2017-07-05T13:58:41.976Z,21.00
2017-07-05T14:01:10.268Z,20.80
2017-07-05T14:03:38.559Z,20.80
2017-07-05T14:06:06.884Z,20.50
2017-07-05T14:08:35.163Z,20.60
2017-07-05T14:11:03.500Z,20.70
2017-07-05T14:13:31.795Z,20.60
2017-07-05T14:16:00.184Z,20.90
2017-07-05T14:18:28.588Z,20.90
2017-07-05T14:20:56.864Z,20.90
2017-07-05T14:23:25.152Z,20.80
2017-07-05T14:25:53.477Z,20.90
2017-07-05T14:28:22.540Z,20.50
2017-07-05T14:30:50.824Z,20.50
2017-07-05T14:33:19.160Z,20.50
2017-07-05T14:35:48.283Z,20.40
2017-07-05T14:38:17.468Z,20.70
2017-07-05T14:40:45.842Z,20.70
2017-07-05T14:43:14.129Z,20.50
2017-07-05T14:45:42.520Z,20.40
2017-07-05T14:48:10.840Z,20.40
2017-07-05T14:50:39.932Z,20.60
2017-07-05T14:53:08.271Z,20.60
2017-07-05T14:55:36.603Z,21.20
2017-07-05T14:58:05.004Z,22.00
2017-07-05T15:00:33.395Z,22.60
2017-07-05T15:03:01.677Z,22.50
2017-07-05T15:05:30.066Z,22.10
2017-07-05T15:07:58.395Z,21.60
2017-07-05T15:10:27.439Z,21.30
2017-07-05T15:12:55.777Z,21.30
2017-07-05T15:15:24.065Z,21.60
2017-07-05T15:17:52.440Z,21.90
2017-07-05T15:20:20.723Z,23.10
2017-07-05T15:22:49.005Z,24.00
2017-07-05T15:25:17.413Z,24.10
2017-07-05T15:27:45.691Z,24.70
2017-07-05T15:30:13.972Z,26.20
2017-07-05T15:32:42.570Z,27.80
2017-07-05T15:35:10.976Z,27.90
2017-07-05T15:37:39.671Z,26.00
2017-07-05T15:40:07.977Z,24.30
2017-07-05T15:42:37.178Z,22.70
2017-07-05T15:45:05.456Z,22.70
2017-07-05T15:47:33.842Z,22.00
2017-07-05T15:50:02.144Z,21.50
2017-07-05T15:52:30.619Z,21.70
2017-07-05T15:54:58.953Z,21.80
2017-07-05T15:57:28.033Z,23.00
2017-07-05T15:59:56.329Z,23.00
2017-07-05T16:02:24.660Z,23.30
2017-07-05T16:04:53.000Z,22.90
2017-07-05T16:07:21.324Z,22.70
2017-07-05T16:09:50.399Z,24.80
2017-07-05T16:12:18.879Z,24.80
2017-07-05T16:14:47.188Z,25.10
2017-07-05T16:17:15.477Z,24.20
2017-07-05T16:19:43.800Z,23.30
2017-07-05T16:22:12.848Z,22.00
2017-07-05T16:24:41.167Z,22.00
2017-07-05T16:27:09.599Z,21.80
2017-07-05T16:29:37.943Z,22.00
2017-07-05T16:32:06.258Z,22.90
2017-07-05T16:34:35.317Z,25.40
2017-07-05T16:37:03.634Z,25.40
2017-07-05T16:39:32.015Z,26.50
2017-07-05T16:42:00.353Z,26.80
2017-07-05T16:44:28.626Z,26.50
2017-07-05T16:46:57.683Z,27.80
2017-07-05T16:49:26.000Z,27.70
2017-07-05T16:51:54.285Z,28.90
2017-07-05T16:54:22.678Z,29.60
2017-07-05T16:56:51.058Z,30.00
2017-07-05T16:59:19.339Z,29.90
2017-07-05T17:01:47.632Z,28.60
2017-07-05T17:04:15.935Z,27.10
2017-07-05T17:06:44.331Z,26.20
2017-07-05T17:09:12.615Z,25.30
2017-07-05T17:11:40.947Z,24.40
2017-07-05T17:14:09.391Z,23.70
2017-07-05T17:16:37.689Z,23.20
2017-07-05T17:19:06.020Z,22.50
2017-07-05T17:21:34.351Z,22.00
2017-07-05T17:24:02.626Z,21.80
2017-07-05T17:26:31.039Z,21.40
2017-07-05T17:28:59.426Z,21.50
2017-07-05T17:31:27.771Z,21.20
2017-07-05T17:33:56.132Z,21.00
2017-07-05T17:36:24.516Z,21.10
2017-07-05T17:38:52.791Z,20.90
2017-07-05T17:41:21.205Z,21.00
2017-07-05T17:43:49.531Z,21.00
2017-07-05T17:46:17.886Z,21.00
2017-07-05T17:48:46.263Z,21.10
2017-07-05T17:51:14.667Z,21.60
2017-07-05T17:53:42.942Z,21.90
2017-07-05T17:56:11.234Z,22.10
2017-07-05T17:58:39.970Z,23.20
2017-07-05T18:01:08.312Z,24.60
2017-07-05T18:03:36.716Z,26.00
2017-07-05T18:06:05.125Z,26.80
2017-07-05T18:08:34.184Z,26.40
2017-07-05T18:11:02.518Z,26.40
2017-07-05T18:13:30.790Z,25.70
2017-07-05T18:15:59.174Z,24.70
2017-07-05T18:18:27.460Z,23.70
2017-07-05T18:20:55.793Z,22.90
2017-07-05T18:23:24.837Z,21.50
2017-07-05T18:25:53.114Z,21.40
2017-07-05T18:28:21.426Z,20.90
2017-07-05T18:30:49.749Z,20.60
2017-07-05T18:33:18.127Z,20.50
2017-07-05T18:35:46.465Z,20.30
2017-07-05T18:38:14.797Z,20.10
2017-07-05T18:40:43.070Z,20.00
2017-07-05T18:43:11.394Z,19.90
2017-07-05T18:45:39.671Z,19.70
2017-07-05T18:48:07.968Z,19.50
2017-07-05T18:50:36.278Z,19.40
2017-07-05T18:53:05.323Z,19.00
2017-07-05T18:55:33.751Z,19.00
2017-07-05T18:58:02.026Z,18.80
2017-07-05T19:00:30.436Z,18.70
2017-07-05T19:02:58.724Z,18.60
2017-07-05T19:05:27.110Z,18.40
2017-07-05T19:07:55.498Z,18.20
2017-07-05T19:10:23.828Z,18.10
2017-07-05T19:12:52.937Z,17.70
2017-07-05T19:15:22.111Z,17.60
2017-07-05T19:17:50.441Z,17.60
2017-07-05T19:20:18.787Z,17.50
2017-07-05T19:22:47.072Z,17.30
2017-07-05T19:25:15.471Z,17.20
2017-07-05T19:27:43.829Z,17.00
2017-07-05T19:30:12.119Z,16.90
2017-07-05T19:32:40.430Z,16.80
2017-07-05T19:35:08.722Z,16.70
2017-07-05T19:37:37.019Z,16.60
2017-07-05T19:40:05.419Z,16.50
2017-07-05T19:42:33.744Z,16.50
2017-07-05T19:45:02.018Z,16.30
2017-07-05T19:47:31.200Z,16.10
2017-07-05T19:49:59.483Z,16.10
2017-07-05T19:52:27.779Z,16.10
2017-07-05T19:54:56.168Z,16.00
2017-07-05T19:57:24.448Z,16.00
2017-07-05T19:59:52.759Z,16.00
2017-07-05T20:02:21.943Z,16.10
2017-07-05T20:04:50.272Z,16.10
2017-07-05T20:07:19.384Z,16.10
2017-07-05T20:09:47.732Z,16.10
2017-07-05T20:12:16.056Z,16.00
2017-07-05T20:14:45.138Z,16.00
2017-07-05T20:17:14.918Z,16.00
2017-07-05T20:19:43.234Z,16.00
2017-07-05T20:22:11.560Z,16.00
2017-07-05T20:24:40.625Z,15.90
2017-07-05T20:27:08.972Z,15.90
2017-07-05T20:29:37.428Z,15.90
2017-07-05T20:32:05.734Z,16.00
2017-07-05T20:34:34.925Z,15.80
2017-07-05T20:37:03.209Z,15.80
2017-07-05T20:39:31.543Z,15.80
2017-07-05T20:41:59.833Z,15.70
2017-07-05T20:44:28.182Z,15.70
2017-07-05T20:46:56.464Z,15.60
2017-07-05T20:49:24.791Z,15.70
2017-07-05T20:51:53.844Z,15.70
2017-07-05T20:54:22.147Z,15.70
2017-07-05T20:56:50.475Z,15.60
2017-07-05T20:59:19.518Z,15.60
2017-07-05T21:01:47.834Z,15.60
2017-07-05T21:04:16.163Z,15.50
2017-07-05T21:06:45.216Z,15.50
2017-07-05T21:09:13.528Z,15.50
2017-07-05T21:11:41.910Z,15.40
2017-07-05T21:14:10.186Z,15.30
2017-07-05T21:16:38.495Z,15.30
2017-07-05T21:19:06.838Z,15.30
2017-07-05T21:21:35.128Z,15.30
2017-07-05T21:24:03.398Z,15.30
2017-07-05T21:26:31.758Z,15.30
2017-07-05T21:29:00.165Z,15.30
2017-07-05T21:31:28.494Z,15.20
2017-07-05T21:33:56.779Z,15.20
2017-07-05T21:36:25.083Z,15.10
2017-07-05T21:38:53.397Z,15.20
2017-07-05T21:41:21.674Z,15.20
2017-07-05T21:43:50.006Z,15.10
2017-07-05T21:46:19.093Z,15.10
2017-07-05T21:48:47.451Z,15.10
2017-07-05T21:51:15.791Z,15.00
2017-07-05T21:53:44.863Z,14.90
2017-07-05T21:56:13.157Z,14.90
2017-07-05T21:58:41.500Z,14.90
2017-07-05T22:01:09.848Z,14.80
2017-07-05T22:03:38.122Z,14.80
2017-07-05T22:06:06.529Z,14.70
2017-07-05T22:08:34.812Z,14.60
2017-07-05T22:11:03.136Z,14.60
2017-07-05T22:13:32.206Z,14.60
2017-07-05T22:16:00.521Z,14.60
2017-07-05T22:18:28.847Z,14.50
2017-07-05T22:20:57.192Z,14.50
2017-07-05T22:23:25.466Z,14.50
2017-07-05T22:25:53.787Z,14.50
2017-07-05T22:28:22.871Z,14.40
2017-07-05T22:30:51.160Z,14.50
2017-07-05T22:33:19.649Z,14.40
2017-07-05T22:35:47.970Z,14.40
2017-07-05T22:38:17.011Z,14.40
2017-07-05T22:40:45.456Z,14.30
2017-07-05T22:43:13.727Z,14.30
2017-07-05T22:45:42.032Z,14.20
2017-07-05T22:48:10.383Z,14.20
2017-07-05T22:50:38.700Z,14.20
2017-07-05T22:53:07.019Z,14.30
2017-07-05T22:55:36.072Z,14.20
2017-07-05T22:58:04.394Z,14.20
2017-07-05T23:00:32.776Z,14.20
2017-07-05T23:03:01.161Z,14.10
2017-07-05T23:05:29.494Z,14.10
2017-07-05T23:07:58.543Z,14.00
2017-07-05T23:10:26.858Z,14.00
2017-07-05T23:12:55.145Z,14.00
2017-07-05T23:15:23.442Z,14.00
2017-07-05T23:17:51.767Z,13.90
2017-07-05T23:20:20.052Z,13.80
2017-07-05T23:22:48.331Z,13.80
2017-07-05T23:25:17.428Z,13.80
2017-07-05T23:27:45.822Z,13.80
2017-07-05T23:30:14.877Z,13.70
2017-07-05T23:32:43.156Z,13.70
2017-07-05T23:35:11.468Z,13.70
2017-07-05T23:37:39.790Z,13.60
2017-07-05T23:40:08.175Z,13.60
2017-07-05T23:42:36.473Z,13.60
2017-07-05T23:45:04.822Z,13.50
2017-07-05T23:47:33.246Z,13.50
2017-07-05T23:50:01.540Z,13.40
2017-07-05T23:52:29.816Z,13.40
2017-07-05T23:54:58.150Z,13.40
2017-07-05T23:57:26.426Z,13.40
2017-07-05T23:59:55.475Z,13.40
